»·PEaware :: UAL250 KSFO-KLAS

UAL250 :: KSFO-KLAS

FLIGHT INFORMATION

Flight Status: Arrived
Operator:
United Airlines
More flights by this operator :: More flights under this callsign
Pilot: Andrew J. (13363)
Aircraft: BOEING 747-400 (WINGLETS)
(B744)
More flights by this aircraft type
Origin: KSFO San Francisco Intl
United States
Destination: KLAS McCarran Intl
United States
More flights between these airports :: More routes between these airports
Route: SSTIK3 NTELL Q162 ESSA BTY SUNST3
File this flight plan on PilotEdge
Remarks:
Altitude:
(Current/Filed)
35,000ft
Speed:
(Current/Filed)
460kts
Departed: 20-Apr-17 09:22 PM
Arrived: 20-Apr-17 10:05 PM
Distance/Time
Traveled:
359nm/0:43
Distance/Time
To Go:
Arrived

Flight Plot

Page will automatically refresh every two minutes.


Map Options




Map Legend


Flown Route
Filed Route
Departure Airport
Arrival Airport
Navaid (VOR, NDB)
Fix

Horizontal Profiles

Position Reports

Time Latitude Longitude Heading Altitude Ground
Speed
20-Apr-17 21:05 37.618612 -122.391791 206 25ft 0kts
20-Apr-17 21:06 37.618612 -122.391791 206 25ft 0kts
20-Apr-17 21:07 37.618612 -122.391791 206 25ft 0kts
20-Apr-17 21:08 37.618612 -122.391791 206 25ft 0kts
20-Apr-17 21:09 37.618612 -122.391791 206 26ft 0kts
20-Apr-17 21:10 37.618612 -122.391791 206 26ft 0kts
20-Apr-17 21:11 37.618612 -122.391791 206 26ft 0kts
20-Apr-17 21:12 37.618612 -122.391791 206 26ft 0kts
20-Apr-17 21:13 37.618913 -122.391560 222 26ft 2kts
20-Apr-17 21:14 37.619138 -122.390953 295 26ft 2kts
20-Apr-17 21:15 37.619062 -122.390768 297 26ft 0kts
20-Apr-17 21:16 37.619062 -122.390768 297 26ft 0kts
20-Apr-17 21:17 37.620693 -122.392118 27 26ft 11kts
20-Apr-17 21:18 37.622631 -122.389575 74 26ft 14kts
20-Apr-17 21:19 37.619657 -122.381974 118 26ft 26kts
20-Apr-17 21:20 37.614708 -122.380872 207 26ft 20kts
20-Apr-17 21:21 37.610242 -122.383903 212 26ft 16kts
20-Apr-17 21:22 37.608924 -122.382269 73 26ft 7kts
20-Apr-17 21:23 37.609081 -122.382099 20 26ft 0kts
20-Apr-17 21:24 37.618473 -122.375878 27 27ft 161kts
20-Apr-17 21:25 37.665452 -122.362019 344 2959ft 194kts
20-Apr-17 21:26 37.705941 -122.414360 266 4612ft 267kts
20-Apr-17 21:27 37.650286 -122.472997 187 7929ft 297kts
20-Apr-17 21:28 37.565233 -122.472874 181 10022ft 313kts
20-Apr-17 21:29 37.469508 -122.440484 136 10855ft 429kts
20-Apr-17 21:30 37.405748 -122.306210 107 14196ft 465kts
20-Apr-17 21:31 37.372015 -122.143657 102 17568ft 496kts
20-Apr-17 21:32 37.338234 -121.971618 99 19331ft 515kts
20-Apr-17 21:33 37.330389 -121.790454 90 21955ft 534kts
20-Apr-17 21:34 37.323840 -121.599484 90 24495ft 554kts
20-Apr-17 21:35 37.316755 -121.402903 90 26540ft 570kts
20-Apr-17 21:36 37.309238 -121.203694 90 28786ft 569kts
20-Apr-17 21:37 37.301456 -121.006035 89 30828ft 566kts
20-Apr-17 21:38 37.293399 -120.809694 89 32701ft 562kts
20-Apr-17 21:39 37.285061 -120.614452 88 34329ft 558kts
20-Apr-17 21:40 37.276477 -120.420881 88 35270ft 556kts
20-Apr-17 21:41 37.267557 -120.226907 88 35272ft 555kts
20-Apr-17 21:42 37.258352 -120.033616 88 35273ft 556kts
20-Apr-17 21:43 37.248823 -119.840221 88 35274ft 556kts
20-Apr-17 21:44 37.238941 -119.646078 89 35283ft 556kts
20-Apr-17 21:45 37.228797 -119.453034 89 35292ft 554kts
20-Apr-17 21:46 37.201323 -119.263094 105 35303ft 562kts
20-Apr-17 21:47 37.149379 -119.077800 106 35319ft 567kts
20-Apr-17 21:48 37.095906 -118.889178 106 35321ft 580kts
20-Apr-17 21:49 37.041300 -118.697764 106 35278ft 583kts
20-Apr-17 21:50 36.986501 -118.507003 106 35263ft 583kts
20-Apr-17 21:51 36.231295 -115.997902 109 25042ft 451kts
20-Apr-17 21:52 36.088900 -115.552872 110 16783ft 432kts
20-Apr-17 21:53 36.022637 -115.272786 82 16075ft 429kts
20-Apr-17 21:54 36.011279 -115.103414 91 15107ft 417kts
20-Apr-17 21:55 36.000985 -114.965403 91 12246ft 388kts
20-Apr-17 21:56 35.993333 -114.834629 91 9092ft 365kts
20-Apr-17 21:57 35.988153 -114.718397 91 7371ft 318kts
20-Apr-17 21:58 36.028124 -114.649374 5 7005ft 227kts
20-Apr-17 21:59 36.066670 -114.699053 293 7018ft 216kts
20-Apr-17 22:00 36.075075 -114.770394 270 7029ft 208kts
20-Apr-17 22:01 36.073973 -114.841945 271 6604ft 200kts
20-Apr-17 22:02 36.073854 -114.909179 272 5557ft 193kts
20-Apr-17 22:03 36.073797 -114.972850 271 4586ft 172kts
20-Apr-17 22:04 36.073839 -115.029631 272 3641ft 155kts
20-Apr-17 22:05 36.073591 -115.082017 272 3026ft 156kts
20-Apr-17 22:06 36.073633 -115.132995 272 2196ft 131kts
20-Apr-17 22:07 36.075068 -115.151099 313 2194ft 22kts
20-Apr-17 22:08 36.077912 -115.148265 97 2194ft 18kts
20-Apr-17 22:09 36.077399 -115.142478 66 2194ft 15kts
20-Apr-17 22:10 36.081024 -115.141865 22 2194ft 12kts
20-Apr-17 22:11 36.081230 -115.141303 76 2194ft 0kts
20-Apr-17 22:12 36.081230 -115.141303 76 2194ft 0kts
20-Apr-17 22:13 36.081230 -115.141303 76 2194ft 0kts
20-Apr-17 22:14 36.081230 -115.141303 76 2194ft 0kts
20-Apr-17 22:15 36.081230 -115.141303 76 2194ft 0kts
20-Apr-17 22:16 36.081230 -115.141303 76 2194ft 0kts
20-Apr-17 22:17 36.081230 -115.141303 76 2194ft 0kts
20-Apr-17 22:18 36.081230 -115.141303 76 2194ft 0kts
20-Apr-17 22:19 36.081230 -115.141303 76 2194ft 0kts
20-Apr-17 22:20 36.081230 -115.141303 76 2194ft 0kts
20-Apr-17 22:21 36.081230 -115.141303 76 2194ft 0kts

Navigation Log

Ident Type
1. KSFO Airport
2. BTY Navaid
3. MYCAL Fix
4. FUZZY Fix
5. TRAGR Fix
6. IPUMY Fix
7. NIPZO Fix
8. SUNST Fix
9. KIMME Fix
10. CHIPZ Fix
11. POKRR Fix
12. PRINO Fix
13. KLAS Airport